Terminal Aerodrome Forecast
Issued by NWS

Home | Current Version | Previous Version | Text Only | Print | Product List | Glossary On
Versions: 1 2 3 4 5 6 7 8 9 10 11 12 13 14 15 16
000
FTUS43 KEAX 072300
TAFSTJ
TAF
KSTJ 072327Z 0800/0824 16008KT P6SM FEW050 SCT100
     FM080200 05008KT 4SM -TSRA BKN050CB
      TEMPO 0802/0804 VRB30G40KT 1SM +TSRA
     FM080700 02007KT P6SM -SHRA VCTS BKN035CB
     FM081000 35009KT P6SM SCT035
     FM081400 34012KT P6SM SCT050=

USA.gov is the U.S. government's official web portal to all federal, state and local government web resources and services.